sensor_id;sensor_type;location;lat;lon;timestamp;P1;durP1;ratioP1;P2;durP2;ratioP2
43160;SDS011;40968;52.342;5.528;2023-08-06T00:01:32;23.13;;;8.95;;
43160;SDS011;40968;52.342;5.528;2023-08-06T00:03:59;25.67;;;9.85;;
43160;SDS011;40968;52.342;5.528;2023-08-06T00:06:26;26.38;;;9.60;;
43160;SDS011;40968;52.342;5.528;2023-08-06T00:08:52;27.60;;;9.60;;
43160;SDS011;40968;52.342;5.528;2023-08-06T00:11:21;24.88;;;10.38;;
43160;SDS011;40968;52.342;5.528;2023-08-06T00:13:48;26.45;;;10.07;;
43160;SDS011;40968;52.342;5.528;2023-08-06T00:16:14;23.80;;;9.45;;
43160;SDS011;40968;52.342;5.528;2023-08-06T00:18:41;23.20;;;8.73;;
43160;SDS011;40968;52.342;5.528;2023-08-06T00:21:08;22.17;;;9.75;;
43160;SDS011;40968;52.342;5.528;2023-08-06T00:23:37;25.40;;;10.65;;
43160;SDS011;40968;52.342;5.528;2023-08-06T00:26:03;29.77;;;10.63;;
43160;SDS011;40968;52.342;5.528;2023-08-06T00:28:31;25.00;;;9.90;;
43160;SDS011;40968;52.342;5.528;2023-08-06T00:30:58;26.00;;;10.45;;
43160;SDS011;40968;52.342;5.528;2023-08-06T00:33:25;26.23;;;10.32;;
43160;SDS011;40968;52.342;5.528;2023-08-06T00:35:51;29.83;;;10.10;;
43160;SDS011;40968;52.342;5.528;2023-08-06T00:38:18;22.45;;;10.10;;
43160;SDS011;40968;52.342;5.528;2023-08-06T00:40:45;24.80;;;9.80;;
43160;SDS011;40968;52.342;5.528;2023-08-06T00:43:11;25.13;;;10.57;;
43160;SDS011;40968;52.342;5.528;2023-08-06T00:45:39;31.77;;;11.00;;
43160;SDS011;40968;52.342;5.528;2023-08-06T00:48:06;31.67;;;12.80;;
43160;SDS011;40968;52.342;5.528;2023-08-06T00:50:33;28.67;;;11.32;;
43160;SDS011;40968;52.342;5.528;2023-08-06T00:53:00;35.25;;;12.60;;
43160;SDS011;40968;52.342;5.528;2023-08-06T00:55:28;26.25;;;11.98;;
43160;SDS011;40968;52.342;5.528;2023-08-06T00:57:55;30.35;;;12.23;;
43160;SDS011;40968;52.342;5.528;2023-08-06T01:00:22;33.10;;;11.55;;
43160;SDS011;40968;52.342;5.528;2023-08-06T01:02:51;28.65;;;11.75;;
43160;SDS011;40968;52.342;5.528;2023-08-06T01:05:19;29.08;;;10.95;;
43160;SDS011;40968;52.342;5.528;2023-08-06T01:07:48;25.38;;;11.60;;
43160;SDS011;40968;52.342;5.528;2023-08-06T01:10:27;25.20;;;10.73;;
43160;SDS011;40968;52.342;5.528;2023-08-06T01:13:06;40.80;;;11.65;;
43160;SDS011;40968;52.342;5.528;2023-08-06T01:15:38;35.63;;;11.73;;
43160;SDS011;40968;52.342;5.528;2023-08-06T01:18:11;30.77;;;12.02;;
43160;SDS011;40968;52.342;5.528;2023-08-06T01:20:39;30.05;;;11.50;;
43160;SDS011;40968;52.342;5.528;2023-08-06T01:23:06;32.13;;;11.70;;
43160;SDS011;40968;52.342;5.528;2023-08-06T01:25:33;29.27;;;11.68;;
43160;SDS011;40968;52.342;5.528;2023-08-06T01:28:03;30.17;;;11.75;;
43160;SDS011;40968;52.342;5.528;2023-08-06T01:30:35;24.42;;;11.38;;
43160;SDS011;40968;52.342;5.528;2023-08-06T01:33:06;29.65;;;11.63;;
43160;SDS011;40968;52.342;5.528;2023-08-06T01:35:42;30.63;;;11.88;;
43160;SDS011;40968;52.342;5.528;2023-08-06T01:38:09;35.13;;;12.65;;
43160;SDS011;40968;52.342;5.528;2023-08-06T01:40:36;31.25;;;11.65;;
43160;SDS011;40968;52.342;5.528;2023-08-06T01:43:02;33.47;;;11.30;;
43160;SDS011;40968;52.342;5.528;2023-08-06T01:45:29;30.02;;;11.85;;
43160;SDS011;40968;52.342;5.528;2023-08-06T01:47:56;33.17;;;12.20;;
43160;SDS011;40968;52.342;5.528;2023-08-06T01:50:22;25.65;;;11.38;;
43160;SDS011;40968;52.342;5.528;2023-08-06T01:52:50;30.80;;;13.25;;
43160;SDS011;40968;52.342;5.528;2023-08-06T01:55:17;33.25;;;11.98;;
43160;SDS011;40968;52.342;5.528;2023-08-06T01:57:44;33.10;;;12.80;;
43160;SDS011;40968;52.342;5.528;2023-08-06T02:00:11;31.67;;;13.32;;
43160;SDS011;40968;52.342;5.528;2023-08-06T02:02:38;25.77;;;11.10;;
43160;SDS011;40968;52.342;5.528;2023-08-06T02:05:06;25.77;;;10.55;;
43160;SDS011;40968;52.342;5.528;2023-08-06T02:07:33;29.50;;;12.15;;
43160;SDS011;40968;52.342;5.528;2023-08-06T02:10:01;32.72;;;11.88;;
43160;SDS011;40968;52.342;5.528;2023-08-06T02:12:27;34.20;;;12.85;;
43160;SDS011;40968;52.342;5.528;2023-08-06T02:14:56;34.08;;;12.35;;
43160;SDS011;40968;52.342;5.528;2023-08-06T02:17:23;29.38;;;13.07;;
43160;SDS011;40968;52.342;5.528;2023-08-06T02:19:50;32.70;;;12.93;;
43160;SDS011;40968;52.342;5.528;2023-08-06T02:22:16;36.63;;;13.52;;
43160;SDS011;40968;52.342;5.528;2023-08-06T02:24:43;29.50;;;12.15;;
43160;SDS011;40968;52.342;5.528;2023-08-06T02:27:11;30.83;;;11.68;;
43160;SDS011;40968;52.342;5.528;2023-08-06T02:29:39;37.97;;;12.98;;
43160;SDS011;40968;52.342;5.528;2023-08-06T02:32:06;27.38;;;10.77;;
43160;SDS011;40968;52.342;5.528;2023-08-06T02:34:33;32.45;;;12.68;;
43160;SDS011;40968;52.342;5.528;2023-08-06T02:37:00;25.52;;;10.45;;
43160;SDS011;40968;52.342;5.528;2023-08-06T02:39:26;34.38;;;12.80;;
43160;SDS011;40968;52.342;5.528;2023-08-06T02:41:53;35.30;;;12.20;;
43160;SDS011;40968;52.342;5.528;2023-08-06T02:44:21;33.75;;;12.88;;
43160;SDS011;40968;52.342;5.528;2023-08-06T02:46:47;35.83;;;13.07;;
43160;SDS011;40968;52.342;5.528;2023-08-06T02:49:14;29.45;;;11.43;;
43160;SDS011;40968;52.342;5.528;2023-08-06T02:51:41;29.75;;;11.10;;
43160;SDS011;40968;52.342;5.528;2023-08-06T02:54:07;31.60;;;12.13;;
43160;SDS011;40968;52.342;5.528;2023-08-06T02:56:34;36.28;;;13.10;;
43160;SDS011;40968;52.342;5.528;2023-08-06T02:59:00;34.15;;;12.48;;
43160;SDS011;40968;52.342;5.528;2023-08-06T03:01:28;33.63;;;11.88;;
43160;SDS011;40968;52.342;5.528;2023-08-06T03:03:55;35.17;;;14.00;;
43160;SDS011;40968;52.342;5.528;2023-08-06T03:06:22;28.15;;;11.50;;
43160;SDS011;40968;52.342;5.528;2023-08-06T03:08:49;34.83;;;12.90;;
43160;SDS011;40968;52.342;5.528;2023-08-06T03:11:15;33.28;;;12.65;;
43160;SDS011;40968;52.342;5.528;2023-08-06T03:13:42;38.95;;;14.20;;
43160;SDS011;40968;52.342;5.528;2023-08-06T03:16:08;37.70;;;13.25;;
43160;SDS011;40968;52.342;5.528;2023-08-06T03:18:36;31.27;;;12.15;;
43160;SDS011;40968;52.342;5.528;2023-08-06T03:21:03;30.48;;;11.50;;
43160;SDS011;40968;52.342;5.528;2023-08-06T03:23:29;41.83;;;12.90;;
43160;SDS011;40968;52.342;5.528;2023-08-06T03:25:56;36.13;;;13.25;;
43160;SDS011;40968;52.342;5.528;2023-08-06T03:28:27;36.63;;;14.13;;
43160;SDS011;40968;52.342;5.528;2023-08-06T03:30:58;35.58;;;13.10;;
43160;SDS011;40968;52.342;5.528;2023-08-06T03:33:26;39.13;;;14.25;;
43160;SDS011;40968;52.342;5.528;2023-08-06T03:35:54;47.80;;;16.38;;
43160;SDS011;40968;52.342;5.528;2023-08-06T03:38:21;35.47;;;15.13;;
43160;SDS011;40968;52.342;5.528;2023-08-06T03:40:48;37.38;;;12.75;;
43160;SDS011;40968;52.342;5.528;2023-08-06T03:43:15;32.38;;;14.05;;
43160;SDS011;40968;52.342;5.528;2023-08-06T03:45:41;36.55;;;13.90;;
43160;SDS011;40968;52.342;5.528;2023-08-06T03:48:08;43.08;;;14.48;;
43160;SDS011;40968;52.342;5.528;2023-08-06T03:50:35;36.00;;;13.18;;
43160;SDS011;40968;52.342;5.528;2023-08-06T03:53:03;36.65;;;13.57;;
43160;SDS011;40968;52.342;5.528;2023-08-06T03:55:30;39.17;;;13.43;;
43160;SDS011;40968;52.342;5.528;2023-08-06T03:57:56;31.08;;;12.20;;
43160;SDS011;40968;52.342;5.528;2023-08-06T04:00:23;33.15;;;12.13;;
43160;SDS011;40968;52.342;5.528;2023-08-06T04:02:49;29.02;;;11.20;;
43160;SDS011;40968;52.342;5.528;2023-08-06T04:05:16;35.80;;;12.57;;
43160;SDS011;40968;52.342;5.528;2023-08-06T04:07:43;36.30;;;13.00;;
43160;SDS011;40968;52.342;5.528;2023-08-06T04:10:11;34.58;;;12.90;;
43160;SDS011;40968;52.342;5.528;2023-08-06T04:12:38;29.50;;;12.18;;
43160;SDS011;40968;52.342;5.528;2023-08-06T04:15:05;35.83;;;14.02;;
43160;SDS011;40968;52.342;5.528;2023-08-06T04:17:32;36.28;;;13.73;;
43160;SDS011;40968;52.342;5.528;2023-08-06T04:19:59;27.23;;;10.48;;
43160;SDS011;40968;52.342;5.528;2023-08-06T04:22:25;35.00;;;13.35;;
43160;SDS011;40968;52.342;5.528;2023-08-06T04:24:52;31.15;;;12.80;;
43160;SDS011;40968;52.342;5.528;2023-08-06T04:27:20;31.63;;;13.85;;
43160;SDS011;40968;52.342;5.528;2023-08-06T04:29:47;36.28;;;13.77;;
43160;SDS011;40968;52.342;5.528;2023-08-06T04:32:13;29.92;;;12.27;;
43160;SDS011;40968;52.342;5.528;2023-08-06T04:34:40;31.65;;;12.85;;
43160;SDS011;40968;52.342;5.528;2023-08-06T04:37:07;32.65;;;12.13;;
43160;SDS011;40968;52.342;5.528;2023-08-06T04:39:33;38.40;;;12.23;;
43160;SDS011;40968;52.342;5.528;2023-08-06T04:42:00;27.27;;;11.85;;
43160;SDS011;40968;52.342;5.528;2023-08-06T04:44:28;27.02;;;11.95;;
43160;SDS011;40968;52.342;5.528;2023-08-06T04:46:54;29.95;;;12.27;;
43160;SDS011;40968;52.342;5.528;2023-08-06T04:49:21;32.33;;;12.18;;
43160;SDS011;40968;52.342;5.528;2023-08-06T04:51:48;39.05;;;13.85;;
43160;SDS011;40968;52.342;5.528;2023-08-06T04:54:14;30.55;;;12.90;;
43160;SDS011;40968;52.342;5.528;2023-08-06T04:56:41;32.13;;;12.18;;
43160;SDS011;40968;52.342;5.528;2023-08-06T04:59:08;31.33;;;11.90;;
43160;SDS011;40968;52.342;5.528;2023-08-06T05:01:36;28.27;;;11.95;;
43160;SDS011;40968;52.342;5.528;2023-08-06T05:04:02;36.65;;;12.38;;
43160;SDS011;40968;52.342;5.528;2023-08-06T05:06:29;30.58;;;12.75;;
43160;SDS011;40968;52.342;5.528;2023-08-06T05:08:56;28.40;;;11.80;;
43160;SDS011;40968;52.342;5.528;2023-08-06T05:11:23;27.92;;;11.00;;
43160;SDS011;40968;52.342;5.528;2023-08-06T05:13:50;28.88;;;11.70;;
43160;SDS011;40968;52.342;5.528;2023-08-06T05:16:17;32.00;;;12.20;;
43160;SDS011;40968;52.342;5.528;2023-08-06T05:18:45;30.88;;;12.57;;
43160;SDS011;40968;52.342;5.528;2023-08-06T05:21:11;33.20;;;12.38;;
43160;SDS011;40968;52.342;5.528;2023-08-06T05:23:38;30.63;;;12.25;;
43160;SDS011;40968;52.342;5.528;2023-08-06T05:26:04;33.25;;;12.13;;
43160;SDS011;40968;52.342;5.528;2023-08-06T05:28:31;33.05;;;11.75;;
43160;SDS011;40968;52.342;5.528;2023-08-06T05:30:58;32.00;;;11.77;;
43160;SDS011;40968;52.342;5.528;2023-08-06T05:33:24;31.08;;;12.07;;
43160;SDS011;40968;52.342;5.528;2023-08-06T05:35:52;29.75;;;11.52;;
43160;SDS011;40968;52.342;5.528;2023-08-06T05:38:19;27.45;;;9.77;;
43160;SDS011;40968;52.342;5.528;2023-08-06T05:40:45;31.88;;;11.50;;
43160;SDS011;40968;52.342;5.528;2023-08-06T05:43:12;33.15;;;11.52;;
43160;SDS011;40968;52.342;5.528;2023-08-06T05:45:39;30.33;;;11.82;;
43160;SDS011;40968;52.342;5.528;2023-08-06T05:48:05;33.05;;;12.00;;
43160;SDS011;40968;52.342;5.528;2023-08-06T05:50:32;29.10;;;10.63;;
43160;SDS011;40968;52.342;5.528;2023-08-06T05:53:00;36.53;;;12.77;;
43160;SDS011;40968;52.342;5.528;2023-08-06T05:55:26;29.45;;;12.23;;
43160;SDS011;40968;52.342;5.528;2023-08-06T05:57:53;30.55;;;12.50;;
43160;SDS011;40968;52.342;5.528;2023-08-06T06:00:21;28.90;;;11.57;;
43160;SDS011;40968;52.342;5.528;2023-08-06T06:02:48;35.47;;;13.30;;
43160;SDS011;40968;52.342;5.528;2023-08-06T06:05:15;30.10;;;11.05;;
43160;SDS011;40968;52.342;5.528;2023-08-06T06:07:42;34.38;;;12.32;;
43160;SDS011;40968;52.342;5.528;2023-08-06T06:10:10;32.83;;;12.45;;
43160;SDS011;40968;52.342;5.528;2023-08-06T06:12:38;34.45;;;12.82;;
43160;SDS011;40968;52.342;5.528;2023-08-06T06:15:05;30.23;;;12.30;;
43160;SDS011;40968;52.342;5.528;2023-08-06T06:17:32;30.13;;;11.52;;
43160;SDS011;40968;52.342;5.528;2023-08-06T06:19:58;33.45;;;11.10;;
43160;SDS011;40968;52.342;5.528;2023-08-06T06:22:25;37.25;;;13.02;;
43160;SDS011;40968;52.342;5.528;2023-08-06T06:24:52;31.33;;;11.40;;
43160;SDS011;40968;52.342;5.528;2023-08-06T06:27:19;28.65;;;11.35;;
43160;SDS011;40968;52.342;5.528;2023-08-06T06:29:46;31.08;;;12.05;;
43160;SDS011;40968;52.342;5.528;2023-08-06T06:32:13;33.72;;;12.23;;
43160;SDS011;40968;52.342;5.528;2023-08-06T06:34:39;29.58;;;12.45;;
43160;SDS011;40968;52.342;5.528;2023-08-06T06:37:06;30.30;;;10.77;;
43160;SDS011;40968;52.342;5.528;2023-08-06T06:39:32;32.55;;;12.90;;
43160;SDS011;40968;52.342;5.528;2023-08-06T06:41:59;36.95;;;12.02;;
43160;SDS011;40968;52.342;5.528;2023-08-06T06:44:27;31.42;;;11.65;;
43160;SDS011;40968;52.342;5.528;2023-08-06T06:46:54;34.47;;;12.13;;
43160;SDS011;40968;52.342;5.528;2023-08-06T06:49:20;29.67;;;11.75;;
43160;SDS011;40968;52.342;5.528;2023-08-06T06:51:47;33.83;;;12.82;;
43160;SDS011;40968;52.342;5.528;2023-08-06T06:54:13;29.75;;;10.85;;
43160;SDS011;40968;52.342;5.528;2023-08-06T06:56:40;37.25;;;12.65;;
43160;SDS011;40968;52.342;5.528;2023-08-06T06:59:07;36.78;;;13.65;;
43160;SDS011;40968;52.342;5.528;2023-08-06T07:01:35;39.72;;;12.95;;
43160;SDS011;40968;52.342;5.528;2023-08-06T07:04:02;32.65;;;12.55;;
43160;SDS011;40968;52.342;5.528;2023-08-06T07:06:31;32.25;;;10.65;;
43160;SDS011;40968;52.342;5.528;2023-08-06T07:08:57;34.08;;;12.43;;
43160;SDS011;40968;52.342;5.528;2023-08-06T07:11:24;38.60;;;12.35;;
43160;SDS011;40968;52.342;5.528;2023-08-06T07:13:55;34.88;;;11.40;;
43160;SDS011;40968;52.342;5.528;2023-08-06T07:16:23;33.33;;;11.63;;
43160;SDS011;40968;52.342;5.528;2023-08-06T07:18:53;32.38;;;11.60;;
43160;SDS011;40968;52.342;5.528;2023-08-06T07:21:20;27.70;;;11.65;;
43160;SDS011;40968;52.342;5.528;2023-08-06T07:23:47;32.83;;;11.80;;
43160;SDS011;40968;52.342;5.528;2023-08-06T07:26:15;37.13;;;13.23;;
43160;SDS011;40968;52.342;5.528;2023-08-06T07:28:42;39.42;;;13.73;;
43160;SDS011;40968;52.342;5.528;2023-08-06T07:31:09;32.67;;;11.40;;
43160;SDS011;40968;52.342;5.528;2023-08-06T07:33:36;36.10;;;12.27;;
43160;SDS011;40968;52.342;5.528;2023-08-06T07:36:08;38.22;;;12.32;;
43160;SDS011;40968;52.342;5.528;2023-08-06T07:38:38;30.95;;;12.35;;
43160;SDS011;40968;52.342;5.528;2023-08-06T07:41:05;39.28;;;14.02;;
43160;SDS011;40968;52.342;5.528;2023-08-06T07:43:31;36.13;;;14.20;;
43160;SDS011;40968;52.342;5.528;2023-08-06T07:45:58;40.92;;;13.20;;
43160;SDS011;40968;52.342;5.528;2023-08-06T07:48:25;35.45;;;14.95;;
43160;SDS011;40968;52.342;5.528;2023-08-06T07:50:53;40.95;;;15.02;;
43160;SDS011;40968;52.342;5.528;2023-08-06T07:53:21;40.80;;;14.25;;
43160;SDS011;40968;52.342;5.528;2023-08-06T07:55:49;39.88;;;13.30;;
43160;SDS011;40968;52.342;5.528;2023-08-06T07:58:17;38.10;;;13.88;;
43160;SDS011;40968;52.342;5.528;2023-08-06T08:00:43;38.80;;;14.63;;
43160;SDS011;40968;52.342;5.528;2023-08-06T08:03:10;36.60;;;13.18;;
43160;SDS011;40968;52.342;5.528;2023-08-06T08:05:37;32.50;;;12.15;;
43160;SDS011;40968;52.342;5.528;2023-08-06T08:08:04;35.22;;;12.10;;
43160;SDS011;40968;52.342;5.528;2023-08-06T08:10:32;34.30;;;12.52;;
43160;SDS011;40968;52.342;5.528;2023-08-06T08:12:59;29.60;;;11.65;;
43160;SDS011;40968;52.342;5.528;2023-08-06T08:15:27;34.58;;;12.10;;
43160;SDS011;40968;52.342;5.528;2023-08-06T08:17:54;32.03;;;12.45;;
43160;SDS011;40968;52.342;5.528;2023-08-06T08:20:21;30.42;;;12.18;;
43160;SDS011;40968;52.342;5.528;2023-08-06T08:22:47;33.42;;;11.20;;
43160;SDS011;40968;52.342;5.528;2023-08-06T08:25:15;38.40;;;12.63;;
43160;SDS011;40968;52.342;5.528;2023-08-06T08:27:43;28.63;;;11.02;;
43160;SDS011;40968;52.342;5.528;2023-08-06T08:30:10;36.97;;;13.57;;
43160;SDS011;40968;52.342;5.528;2023-08-06T08:32:36;36.20;;;12.98;;
43160;SDS011;40968;52.342;5.528;2023-08-06T08:35:03;29.05;;;12.52;;
43160;SDS011;40968;52.342;5.528;2023-08-06T08:37:30;31.73;;;12.63;;
43160;SDS011;40968;52.342;5.528;2023-08-06T08:39:57;41.15;;;14.00;;
43160;SDS011;40968;52.342;5.528;2023-08-06T08:42:23;38.13;;;13.45;;
43160;SDS011;40968;52.342;5.528;2023-08-06T08:44:52;32.60;;;14.05;;
43160;SDS011;40968;52.342;5.528;2023-08-06T08:47:20;36.40;;;12.70;;
43160;SDS011;40968;52.342;5.528;2023-08-06T08:49:47;41.90;;;14.35;;
43160;SDS011;40968;52.342;5.528;2023-08-06T08:52:15;35.15;;;12.73;;
43160;SDS011;40968;52.342;5.528;2023-08-06T08:54:45;36.30;;;14.35;;
43160;SDS011;40968;52.342;5.528;2023-08-06T08:59:43;40.35;;;15.70;;
43160;SDS011;40968;52.342;5.528;2023-08-06T09:02:11;38.03;;;14.88;;
43160;SDS011;40968;52.342;5.528;2023-08-06T09:04:41;40.83;;;15.85;;
43160;SDS011;40968;52.342;5.528;2023-08-06T09:07:10;41.90;;;14.88;;
43160;SDS011;40968;52.342;5.528;2023-08-06T09:09:41;41.67;;;16.10;;
43160;SDS011;40968;52.342;5.528;2023-08-06T09:12:11;43.97;;;16.98;;
43160;SDS011;40968;52.342;5.528;2023-08-06T09:14:40;47.17;;;17.97;;
43160;SDS011;40968;52.342;5.528;2023-08-06T09:17:07;44.42;;;16.52;;
43160;SDS011;40968;52.342;5.528;2023-08-06T09:19:36;43.83;;;16.40;;
43160;SDS011;40968;52.342;5.528;2023-08-06T09:22:03;39.67;;;15.98;;
43160;SDS011;40968;52.342;5.528;2023-08-06T09:24:38;34.95;;;15.13;;
43160;SDS011;40968;52.342;5.528;2023-08-06T09:27:04;42.08;;;16.13;;
43160;SDS011;40968;52.342;5.528;2023-08-06T09:29:31;40.83;;;15.20;;
43160;SDS011;40968;52.342;5.528;2023-08-06T09:31:58;43.97;;;17.00;;
43160;SDS011;40968;52.342;5.528;2023-08-06T09:34:25;41.63;;;16.40;;
43160;SDS011;40968;52.342;5.528;2023-08-06T09:36:53;46.55;;;17.42;;
43160;SDS011;40968;52.342;5.528;2023-08-06T09:39:20;36.53;;;15.10;;
43160;SDS011;40968;52.342;5.528;2023-08-06T09:41:48;39.70;;;14.88;;
43160;SDS011;40968;52.342;5.528;2023-08-06T09:44:22;41.08;;;14.93;;
43160;SDS011;40968;52.342;5.528;2023-08-06T09:46:49;35.20;;;14.05;;
43160;SDS011;40968;52.342;5.528;2023-08-06T09:49:17;39.70;;;13.90;;
43160;SDS011;40968;52.342;5.528;2023-08-06T09:51:45;33.90;;;14.30;;
43160;SDS011;40968;52.342;5.528;2023-08-06T09:54:17;36.10;;;13.65;;
43160;SDS011;40968;52.342;5.528;2023-08-06T09:56:44;37.60;;;14.88;;
43160;SDS011;40968;52.342;5.528;2023-08-06T09:59:11;38.03;;;14.77;;
43160;SDS011;40968;52.342;5.528;2023-08-06T10:01:38;39.30;;;13.82;;
43160;SDS011;40968;52.342;5.528;2023-08-06T10:04:05;26.50;;;10.65;;
43160;SDS011;40968;52.342;5.528;2023-08-06T10:06:34;30.00;;;12.40;;
43160;SDS011;40968;52.342;5.528;2023-08-06T10:09:01;30.15;;;11.65;;
43160;SDS011;40968;52.342;5.528;2023-08-06T10:11:30;27.33;;;11.35;;
43160;SDS011;40968;52.342;5.528;2023-08-06T10:13:58;29.70;;;11.98;;
43160;SDS011;40968;52.342;5.528;2023-08-06T10:16:30;28.08;;;11.88;;
43160;SDS011;40968;52.342;5.528;2023-08-06T10:18:57;31.38;;;12.27;;
43160;SDS011;40968;52.342;5.528;2023-08-06T10:21:24;19.50;;;8.98;;
43160;SDS011;40968;52.342;5.528;2023-08-06T10:23:53;12.30;;;6.32;;
43160;SDS011;40968;52.342;5.528;2023-08-06T10:26:20;16.88;;;5.68;;
43160;SDS011;40968;52.342;5.528;2023-08-06T10:28:53;11.73;;;5.00;;
43160;SDS011;40968;52.342;5.528;2023-08-06T10:31:20;12.48;;;4.57;;
43160;SDS011;40968;52.342;5.528;2023-08-06T10:34:01;11.25;;;3.92;;
43160;SDS011;40968;52.342;5.528;2023-08-06T10:36:28;10.20;;;3.42;;
43160;SDS011;40968;52.342;5.528;2023-08-06T10:38:54;9.98;;;3.33;;
43160;SDS011;40968;52.342;5.528;2023-08-06T10:41:27;13.77;;;3.65;;
43160;SDS011;40968;52.342;5.528;2023-08-06T10:46:33;13.32;;;3.60;;
43160;SDS011;40968;52.342;5.528;2023-08-06T10:49:00;11.13;;;4.05;;
43160;SDS011;40968;52.342;5.528;2023-08-06T10:51:27;11.93;;;4.57;;
43160;SDS011;40968;52.342;5.528;2023-08-06T10:53:54;12.07;;;4.40;;
43160;SDS011;40968;52.342;5.528;2023-08-06T10:56:23;12.25;;;4.10;;
43160;SDS011;40968;52.342;5.528;2023-08-06T10:58:53;16.67;;;5.05;;
43160;SDS011;40968;52.342;5.528;2023-08-06T11:01:22;14.55;;;4.40;;
43160;SDS011;40968;52.342;5.528;2023-08-06T11:03:50;13.57;;;4.57;;
43160;SDS011;40968;52.342;5.528;2023-08-06T11:06:18;8.80;;;3.97;;
43160;SDS011;40968;52.342;5.528;2023-08-06T11:08:47;14.70;;;4.75;;
43160;SDS011;40968;52.342;5.528;2023-08-06T11:11:15;13.45;;;4.50;;
43160;SDS011;40968;52.342;5.528;2023-08-06T11:13:42;11.80;;;4.15;;
43160;SDS011;40968;52.342;5.528;2023-08-06T11:16:11;14.30;;;5.00;;
43160;SDS011;40968;52.342;5.528;2023-08-06T11:18:40;12.52;;;5.43;;
43160;SDS011;40968;52.342;5.528;2023-08-06T11:21:07;12.60;;;5.20;;
43160;SDS011;40968;52.342;5.528;2023-08-06T11:23:34;14.38;;;5.32;;
43160;SDS011;40968;52.342;5.528;2023-08-06T11:26:01;12.98;;;4.97;;
43160;SDS011;40968;52.342;5.528;2023-08-06T11:28:28;17.90;;;5.63;;
43160;SDS011;40968;52.342;5.528;2023-08-06T11:30:55;24.00;;;5.95;;
43160;SDS011;40968;52.342;5.528;2023-08-06T11:35:56;16.10;;;5.93;;
43160;SDS011;40968;52.342;5.528;2023-08-06T11:38:24;16.30;;;5.82;;
43160;SDS011;40968;52.342;5.528;2023-08-06T11:40:52;13.98;;;5.40;;
43160;SDS011;40968;52.342;5.528;2023-08-06T11:43:19;17.30;;;5.97;;
43160;SDS011;40968;52.342;5.528;2023-08-06T11:45:46;14.75;;;6.18;;
43160;SDS011;40968;52.342;5.528;2023-08-06T11:48:12;15.00;;;5.60;;
43160;SDS011;40968;52.342;5.528;2023-08-06T11:50:39;17.38;;;6.30;;
43160;SDS011;40968;52.342;5.528;2023-08-06T11:53:07;16.40;;;6.18;;
43160;SDS011;40968;52.342;5.528;2023-08-06T11:55:38;15.18;;;6.00;;
43160;SDS011;40968;52.342;5.528;2023-08-06T11:58:05;14.75;;;5.88;;
43160;SDS011;40968;52.342;5.528;2023-08-06T12:00:32;15.85;;;5.97;;
43160;SDS011;40968;52.342;5.528;2023-08-06T12:02:59;19.55;;;6.10;;
43160;SDS011;40968;52.342;5.528;2023-08-06T12:05:29;14.30;;;5.18;;
43160;SDS011;40968;52.342;5.528;2023-08-06T12:07:58;15.40;;;5.53;;
43160;SDS011;40968;52.342;5.528;2023-08-06T12:10:28;11.20;;;4.15;;
43160;SDS011;40968;52.342;5.528;2023-08-06T12:12:56;14.25;;;4.40;;
43160;SDS011;40968;52.342;5.528;2023-08-06T12:15:23;13.65;;;4.82;;
43160;SDS011;40968;52.342;5.528;2023-08-06T12:17:50;21.90;;;5.80;;
43160;SDS011;40968;52.342;5.528;2023-08-06T12:20:16;8.02;;;3.58;;
43160;SDS011;40968;52.342;5.528;2023-08-06T12:22:43;10.50;;;4.50;;
43160;SDS011;40968;52.342;5.528;2023-08-06T12:25:11;14.50;;;4.43;;
43160;SDS011;40968;52.342;5.528;2023-08-06T12:27:40;10.65;;;4.53;;
43160;SDS011;40968;52.342;5.528;2023-08-06T12:30:08;12.30;;;4.78;;
43160;SDS011;40968;52.342;5.528;2023-08-06T12:32:35;16.33;;;5.20;;
43160;SDS011;40968;52.342;5.528;2023-08-06T12:35:03;17.67;;;5.32;;
43160;SDS011;40968;52.342;5.528;2023-08-06T12:37:30;12.25;;;4.90;;
43160;SDS011;40968;52.342;5.528;2023-08-06T12:39:57;12.25;;;5.07;;
43160;SDS011;40968;52.342;5.528;2023-08-06T12:42:23;15.30;;;5.55;;
43160;SDS011;40968;52.342;5.528;2023-08-06T12:44:52;15.85;;;5.18;;
43160;SDS011;40968;52.342;5.528;2023-08-06T12:47:18;13.20;;;4.72;;
43160;SDS011;40968;52.342;5.528;2023-08-06T12:49:45;15.95;;;4.93;;
43160;SDS011;40968;52.342;5.528;2023-08-06T12:52:12;9.30;;;3.92;;
43160;SDS011;40968;52.342;5.528;2023-08-06T12:54:40;17.48;;;4.90;;
43160;SDS011;40968;52.342;5.528;2023-08-06T12:57:07;14.32;;;4.45;;
43160;SDS011;40968;52.342;5.528;2023-08-06T12:59:34;13.35;;;4.68;;
43160;SDS011;40968;52.342;5.528;2023-08-06T13:02:03;11.88;;;4.93;;
43160;SDS011;40968;52.342;5.528;2023-08-06T13:04:30;10.70;;;4.20;;
43160;SDS011;40968;52.342;5.528;2023-08-06T13:06:59;17.42;;;4.63;;
43160;SDS011;40968;52.342;5.528;2023-08-06T13:09:25;11.52;;;4.30;;
43160;SDS011;40968;52.342;5.528;2023-08-06T13:11:52;8.50;;;4.03;;
43160;SDS011;40968;52.342;5.528;2023-08-06T13:14:19;10.68;;;4.00;;
43160;SDS011;40968;52.342;5.528;2023-08-06T13:16:46;11.75;;;4.10;;
43160;SDS011;40968;52.342;5.528;2023-08-06T13:19:14;11.88;;;3.70;;
43160;SDS011;40968;52.342;5.528;2023-08-06T13:22:03;9.68;;;3.88;;
43160;SDS011;40968;52.342;5.528;2023-08-06T13:24:31;9.38;;;3.83;;
43160;SDS011;40968;52.342;5.528;2023-08-06T13:26:58;8.88;;;3.30;;
43160;SDS011;40968;52.342;5.528;2023-08-06T13:29:25;9.38;;;3.70;;
43160;SDS011;40968;52.342;5.528;2023-08-06T13:31:52;8.50;;;3.20;;
43160;SDS011;40968;52.342;5.528;2023-08-06T13:34:20;8.75;;;3.53;;
43160;SDS011;40968;52.342;5.528;2023-08-06T13:36:47;15.57;;;4.28;;
43160;SDS011;40968;52.342;5.528;2023-08-06T13:39:14;9.65;;;3.50;;
43160;SDS011;40968;52.342;5.528;2023-08-06T13:41:42;10.55;;;3.38;;
43160;SDS011;40968;52.342;5.528;2023-08-06T13:44:09;14.88;;;3.63;;
43160;SDS011;40968;52.342;5.528;2023-08-06T13:46:39;11.02;;;3.45;;
43160;SDS011;40968;52.342;5.528;2023-08-06T13:49:05;12.68;;;4.15;;
43160;SDS011;40968;52.342;5.528;2023-08-06T13:51:33;11.63;;;4.13;;
43160;SDS011;40968;52.342;5.528;2023-08-06T13:54:01;11.70;;;3.72;;
43160;SDS011;40968;52.342;5.528;2023-08-06T13:56:27;10.10;;;3.63;;
43160;SDS011;40968;52.342;5.528;2023-08-06T13:58:54;10.25;;;3.72;;
43160;SDS011;40968;52.342;5.528;2023-08-06T14:01:21;9.15;;;3.72;;
43160;SDS011;40968;52.342;5.528;2023-08-06T14:03:48;9.15;;;3.45;;
43160;SDS011;40968;52.342;5.528;2023-08-06T14:06:14;10.10;;;3.33;;
43160;SDS011;40968;52.342;5.528;2023-08-06T14:08:42;7.60;;;3.20;;
43160;SDS011;40968;52.342;5.528;2023-08-06T14:11:09;8.32;;;3.17;;
43160;SDS011;40968;52.342;5.528;2023-08-06T14:13:35;9.20;;;3.85;;
43160;SDS011;40968;52.342;5.528;2023-08-06T14:16:02;8.10;;;3.28;;
43160;SDS011;40968;52.342;5.528;2023-08-06T14:18:29;6.35;;;3.03;;
43160;SDS011;40968;52.342;5.528;2023-08-06T14:20:56;11.43;;;3.33;;
43160;SDS011;40968;52.342;5.528;2023-08-06T14:23:22;8.38;;;3.50;;
43160;SDS011;40968;52.342;5.528;2023-08-06T14:25:50;9.07;;;2.97;;
43160;SDS011;40968;52.342;5.528;2023-08-06T14:28:17;9.52;;;3.28;;
43160;SDS011;40968;52.342;5.528;2023-08-06T14:30:43;15.05;;;3.70;;
43160;SDS011;40968;52.342;5.528;2023-08-06T14:33:10;8.60;;;3.70;;
43160;SDS011;40968;52.342;5.528;2023-08-06T14:35:37;15.88;;;3.63;;